createdAt,value
2023-04-10T00:00:38.308Z,99.99
2023-04-10T00:01:38.122Z,99.99
2023-04-10T00:02:38.215Z,99.99
2023-04-10T00:03:38.249Z,99.99
2023-04-10T00:04:37.946Z,99.99
2023-04-10T00:05:58.750Z,99.99
2023-04-10T00:06:37.686Z,99.99
2023-04-10T00:07:37.603Z,99.99
2023-04-10T00:08:37.526Z,99.99
2023-04-10T00:09:37.433Z,99.99
2023-04-10T00:10:37.344Z,99.99
2023-04-10T00:11:58.250Z,99.71
2023-04-10T00:12:37.198Z,99.62
2023-04-10T00:13:37.203Z,99.81
2023-04-10T00:14:37.014Z,99.99
2023-04-10T00:15:36.917Z,99.99
2023-04-10T00:16:36.863Z,99.99
2023-04-10T00:17:57.805Z,99.99
2023-04-10T00:18:36.668Z,99.99
2023-04-10T00:19:36.595Z,99.99
2023-04-10T00:20:36.500Z,99.99
2023-04-10T00:21:36.418Z,99.99
2023-04-10T00:22:36.325Z,99.71
2023-04-10T00:23:57.227Z,99.99
2023-04-10T00:24:36.165Z,99.99
2023-04-10T00:25:36.097Z,99.99
2023-04-10T00:26:35.995Z,99.99
2023-04-10T00:27:35.913Z,99.99
2023-04-10T00:28:35.821Z,99.99
2023-04-10T00:29:56.714Z,99.99
2023-04-10T00:30:35.657Z,99.99
2023-04-10T00:31:35.624Z,99.99
2023-04-10T00:32:35.506Z,99.99
2023-04-10T00:33:35.413Z,99.99
2023-04-10T00:34:35.308Z,99.99
2023-04-10T00:35:56.246Z,99.99
2023-04-10T00:36:35.140Z,99.99
2023-04-10T00:37:35.071Z,99.99
2023-04-10T00:38:34.981Z,99.99
2023-04-10T00:39:34.898Z,99.99
2023-04-10T00:40:34.803Z,99.99
2023-04-10T00:41:55.713Z,99.99
2023-04-10T00:42:34.650Z,99.99
2023-04-10T00:43:34.562Z,99.99
2023-04-10T00:44:34.464Z,99.99
2023-04-10T00:45:34.449Z,99.99
2023-04-10T00:46:34.342Z,99.99
2023-04-10T00:47:55.227Z,99.99
2023-04-10T00:48:34.127Z,99.99
2023-04-10T00:49:34.060Z,98.91
2023-04-10T00:50:33.969Z,98.06
2023-04-10T00:51:33.877Z,97.87
2023-04-10T00:52:33.796Z,98.06
2023-04-10T00:53:54.902Z,99.29
2023-04-10T00:54:33.606Z,98.63
2023-04-10T00:55:33.542Z,98.25
2023-04-10T00:56:33.448Z,98.44
2023-04-10T00:57:33.378Z,98.15
2023-04-10T00:58:33.267Z,98.82
2023-04-10T00:59:54.168Z,98.53
2023-04-10T01:00:33.103Z,99.19
2023-04-10T01:01:33.059Z,99.48
2023-04-10T01:02:33.023Z,99.76
2023-04-10T01:03:33.142Z,99.85
2023-04-10T01:04:32.848Z,99.99
2023-04-10T01:05:53.655Z,99.99
2023-04-10T01:06:32.607Z,99.99
2023-04-10T01:07:32.518Z,99.99
2023-04-10T01:08:32.476Z,99.99
2023-04-10T01:09:32.345Z,99.99
2023-04-10T01:10:32.294Z,99.99
2023-04-10T01:11:53.172Z,99.99
2023-04-10T01:12:32.080Z,99.99
2023-04-10T01:13:32.006Z,99.99
2023-04-10T01:14:31.916Z,99.99
2023-04-10T01:15:31.830Z,99.99
2023-04-10T01:16:31.757Z,99.99
2023-04-10T01:17:52.694Z,99.99
2023-04-10T01:18:31.562Z,99.99
2023-04-10T01:19:31.481Z,99.99
2023-04-10T01:20:31.401Z,99.99
2023-04-10T01:21:31.321Z,99.99
2023-04-10T01:22:31.233Z,99.99
2023-04-10T01:23:52.324Z,99.99
2023-04-10T01:24:31.055Z,99.99
2023-04-10T01:25:30.969Z,99.99
2023-04-10T01:26:30.896Z,99.99
2023-04-10T01:27:30.821Z,99.99
2023-04-10T01:28:30.721Z,99.99
2023-04-10T01:29:51.675Z,99.99
2023-04-10T01:30:30.613Z,99.99
2023-04-10T01:31:30.468Z,99.99
2023-04-10T01:32:30.386Z,99.99
2023-04-10T01:33:30.305Z,99.99
2023-04-10T01:34:30.224Z,99.99
2023-04-10T01:35:51.129Z,99.99
2023-04-10T01:36:30.053Z,99.99
2023-04-10T01:37:29.954Z,99.99
2023-04-10T01:38:29.870Z,99.99
2023-04-10T01:39:29.777Z,99.99
2023-04-10T01:40:29.695Z,99.99
2023-04-10T01:41:50.601Z,99.99
2023-04-10T01:42:29.521Z,99.99
2023-04-10T01:43:29.452Z,99.99
2023-04-10T01:44:29.356Z,99.99
2023-04-10T01:45:29.331Z,99.99
2023-04-10T01:46:29.224Z,99.99
2023-04-10T01:47:50.110Z,99.99
2023-04-10T01:48:29.009Z,99.99
2023-04-10T01:49:28.929Z,99.99
2023-04-10T01:50:28.854Z,99.99
2023-04-10T01:51:28.769Z,99.99
2023-04-10T01:52:28.674Z,99.99
2023-04-10T01:53:49.573Z,99.99
2023-04-10T01:54:28.510Z,99.99
2023-04-10T01:55:28.441Z,99.99
2023-04-10T01:56:28.325Z,99.99
2023-04-10T01:57:28.245Z,99.99
2023-04-10T01:58:28.164Z,99.99
2023-04-10T01:59:49.089Z,99.99
2023-04-10T02:00:28.033Z,99.99
2023-04-10T02:01:30.360Z,99.99
2023-04-10T02:02:27.925Z,99.99
2023-04-10T02:03:27.936Z,99.99
2023-04-10T02:04:27.739Z,99.99
2023-04-10T02:05:48.540Z,99.99
2023-04-10T02:06:27.472Z,99.99
2023-04-10T02:07:27.398Z,99.99
2023-04-10T02:08:27.303Z,99.99
2023-04-10T02:09:27.226Z,99.99
2023-04-10T02:10:27.130Z,99.99
2023-04-10T02:11:48.028Z,99.99
2023-04-10T02:12:26.968Z,99.99
2023-04-10T02:13:26.904Z,99.99
2023-04-10T02:14:26.807Z,99.99
2023-04-10T02:15:26.715Z,99.99
2023-04-10T02:16:26.741Z,99.99
2023-04-10T02:17:47.552Z,99.99
2023-04-10T02:18:26.453Z,99.99
2023-04-10T02:19:26.398Z,99.99
2023-04-10T02:20:26.275Z,99.99
2023-04-10T02:21:26.197Z,99.99
2023-04-10T02:22:26.119Z,99.99
2023-04-10T02:23:47.026Z,99.99
2023-04-10T02:24:25.931Z,99.99
2023-04-10T02:25:25.863Z,99.99
2023-04-10T02:26:25.779Z,99.99
2023-04-10T02:27:25.680Z,99.99
2023-04-10T02:28:25.601Z,99.99
2023-04-10T02:29:46.496Z,99.99
2023-04-10T02:30:25.433Z,99.99
2023-04-10T02:31:25.408Z,99.99
2023-04-10T02:32:25.290Z,99.99
2023-04-10T02:33:25.172Z,99.99
2023-04-10T02:34:25.107Z,99.99
2023-04-10T02:35:46.006Z,99.99
2023-04-10T02:36:24.908Z,99.99
2023-04-10T02:37:24.838Z,99.99
2023-04-10T02:38:24.741Z,99.99
2023-04-10T02:39:24.661Z,99.99
2023-04-10T02:40:24.565Z,99.99
2023-04-10T02:41:45.466Z,99.99
2023-04-10T02:42:24.422Z,99.99
2023-04-10T02:43:24.331Z,99.99
2023-04-10T02:44:24.238Z,99.99
2023-04-10T02:45:24.149Z,99.99
2023-04-10T02:46:24.124Z,99.99
2023-04-10T02:47:45.034Z,99.99
2023-04-10T02:48:23.884Z,99.99
2023-04-10T02:49:23.797Z,99.99
2023-04-10T02:50:23.707Z,99.99
2023-04-10T02:51:23.636Z,99.99
2023-04-10T02:52:23.543Z,99.99
2023-04-10T02:53:44.444Z,99.99
2023-04-10T02:54:23.364Z,99.99
2023-04-10T02:55:23.292Z,99.99
2023-04-10T02:56:23.217Z,99.99
2023-04-10T02:57:23.125Z,99.99
2023-04-10T02:58:23.031Z,99.99
2023-04-10T02:59:43.917Z,99.99
2023-04-10T03:00:22.849Z,99.99
2023-04-10T03:01:22.796Z,99.99
2023-04-10T03:02:22.840Z,99.99
2023-04-10T03:03:22.880Z,99.99
2023-04-10T03:04:22.655Z,99.99
2023-04-10T03:05:43.407Z,99.99
2023-04-10T03:06:22.346Z,99.99
2023-04-10T03:07:22.272Z,99.99
2023-04-10T03:08:22.182Z,99.99
2023-04-10T03:09:22.118Z,99.99
2023-04-10T03:10:22.012Z,99.99
2023-04-10T03:11:42.897Z,99.99
2023-04-10T03:12:21.821Z,99.99
2023-04-10T03:13:21.745Z,99.99
2023-04-10T03:14:21.662Z,99.99
2023-04-10T03:15:21.577Z,99.99
2023-04-10T03:16:21.529Z,99.99
2023-04-10T03:17:42.416Z,99.99
2023-04-10T03:18:21.322Z,99.99
2023-04-10T03:19:21.232Z,99.99
2023-04-10T03:20:21.163Z,99.99
2023-04-10T03:21:21.085Z,99.99
2023-04-10T03:22:21.045Z,99.99
2023-04-10T03:23:41.868Z,99.99
2023-04-10T03:24:20.816Z,99.99
2023-04-10T03:25:20.726Z,99.99
2023-04-10T03:26:20.628Z,99.99
2023-04-10T03:27:20.549Z,99.99
2023-04-10T03:28:20.470Z,99.99
2023-04-10T03:29:41.373Z,99.99
2023-04-10T03:30:20.296Z,99.99
2023-04-10T03:31:20.237Z,99.99
2023-04-10T03:32:20.129Z,99.99
2023-04-10T03:33:20.105Z,99.99
2023-04-10T03:34:19.944Z,99.99
2023-04-10T03:35:40.893Z,99.99
2023-04-10T03:36:19.806Z,99.99
2023-04-10T03:37:19.692Z,99.99
2023-04-10T03:38:19.590Z,99.99
2023-04-10T03:39:19.510Z,99.99
2023-04-10T03:40:19.426Z,99.99
2023-04-10T03:41:40.331Z,99.99
2023-04-10T03:42:19.258Z,99.99
2023-04-10T03:43:19.176Z,99.99
2023-04-10T03:44:19.088Z,99.99
2023-04-10T03:45:19.010Z,99.99
2023-04-10T03:46:18.922Z,99.99
2023-04-10T03:47:39.816Z,99.99
2023-04-10T03:48:18.737Z,99.99
2023-04-10T03:49:18.662Z,99.99
2023-04-10T03:50:18.574Z,99.99
2023-04-10T03:51:18.480Z,99.99
2023-04-10T03:52:18.398Z,99.99
2023-04-10T03:53:39.291Z,99.99
2023-04-10T03:54:18.225Z,99.99
2023-04-10T03:55:18.136Z,99.99
2023-04-10T03:56:18.055Z,99.99
2023-04-10T03:57:17.964Z,99.99
2023-04-10T03:58:17.892Z,99.99
2023-04-10T03:59:39.106Z,99.99
2023-04-10T04:00:17.705Z,99.99
2023-04-10T04:01:17.626Z,99.99
2023-04-10T04:02:17.602Z,99.99
2023-04-10T04:03:17.648Z,99.99
2023-04-10T04:04:17.603Z,99.99
2023-04-10T04:05:38.267Z,99.99
2023-04-10T04:06:17.191Z,99.99
2023-04-10T04:07:17.116Z,99.99
2023-04-10T04:08:17.033Z,99.99
2023-04-10T04:09:16.957Z,99.99
2023-04-10T04:10:16.845Z,99.99
2023-04-10T04:11:37.737Z,99.99
2023-04-10T04:12:16.680Z,99.99
2023-04-10T04:13:16.608Z,99.99
2023-04-10T04:14:16.513Z,99.99
2023-04-10T04:15:16.415Z,99.99
2023-04-10T04:16:16.360Z,99.99
2023-04-10T04:17:37.253Z,99.99
2023-04-10T04:18:16.165Z,99.99
2023-04-10T04:19:16.117Z,99.99
2023-04-10T04:20:15.994Z,99.99
2023-04-10T04:21:15.911Z,99.99
2023-04-10T04:22:15.818Z,99.99
2023-04-10T04:23:36.697Z,99.99
2023-04-10T04:24:15.640Z,99.99
2023-04-10T04:25:15.554Z,99.99
2023-04-10T04:26:15.478Z,99.99
2023-04-10T04:27:15.381Z,99.99
2023-04-10T04:28:15.299Z,99.99
2023-04-10T04:29:36.191Z,99.99
2023-04-10T04:30:15.143Z,99.99
2023-04-10T04:31:15.042Z,99.99
2023-04-10T04:32:15.083Z,99.99
2023-04-10T04:33:14.882Z,99.99
2023-04-10T04:34:14.789Z,99.99
2023-04-10T04:35:35.679Z,99.99
2023-04-10T04:36:14.640Z,99.99
2023-04-10T04:37:14.528Z,99.99
2023-04-10T04:38:14.440Z,99.99
2023-04-10T04:39:14.363Z,99.99
2023-04-10T04:40:14.273Z,99.99
2023-04-10T04:41:35.164Z,99.99
2023-04-10T04:42:14.105Z,99.99
2023-04-10T04:43:14.016Z,99.99
2023-04-10T04:44:13.932Z,99.99
2023-04-10T04:45:13.840Z,99.99
2023-04-10T04:46:13.792Z,99.99
2023-04-10T04:47:34.687Z,99.99
2023-04-10T04:48:13.594Z,99.99
2023-04-10T04:49:13.504Z,99.99
2023-04-10T04:50:13.413Z,99.99
2023-04-10T04:51:13.329Z,99.99
2023-04-10T04:52:13.234Z,99.99
2023-04-10T04:53:34.114Z,99.99
2023-04-10T04:54:13.075Z,99.99
2023-04-10T04:55:12.977Z,99.99
2023-04-10T04:56:12.905Z,99.99
2023-04-10T04:57:12.796Z,99.99
2023-04-10T04:58:12.722Z,99.99
2023-04-10T04:59:33.615Z,99.99
2023-04-10T05:00:12.554Z,99.99
2023-04-10T05:01:12.475Z,99.99
2023-04-10T05:02:12.464Z,99.99
2023-04-10T05:03:12.418Z,99.99
2023-04-10T05:04:12.367Z,99.99
2023-04-10T05:05:33.102Z,99.99
2023-04-10T05:06:12.022Z,99.99
2023-04-10T05:07:11.947Z,99.99
2023-04-10T05:08:11.850Z,99.99
2023-04-10T05:09:11.759Z,99.99
2023-04-10T05:10:11.685Z,99.99
2023-04-10T05:11:32.568Z,99.99
2023-04-10T05:12:11.557Z,99.99
2023-04-10T05:13:11.426Z,99.99
2023-04-10T05:14:11.341Z,99.99
2023-04-10T05:15:11.244Z,99.99
2023-04-10T05:16:11.229Z,99.99
2023-04-10T05:17:32.127Z,99.99
2023-04-10T05:18:11.050Z,99.99
2023-04-10T05:19:10.903Z,99.99
2023-04-10T05:20:10.824Z,99.99
2023-04-10T05:21:10.728Z,99.99
2023-04-10T05:22:10.641Z,99.99
2023-04-10T05:23:31.533Z,99.99
2023-04-10T05:24:10.488Z,99.99
2023-04-10T05:25:10.382Z,99.99
2023-04-10T05:26:10.295Z,99.99
2023-04-10T05:27:10.224Z,99.99
2023-04-10T05:28:10.136Z,99.99
2023-04-10T05:29:31.042Z,99.99
2023-04-10T05:30:09.973Z,99.99
2023-04-10T05:31:09.995Z,99.99
2023-04-10T05:32:09.870Z,99.99
2023-04-10T05:33:09.704Z,99.99
2023-04-10T05:34:09.601Z,99.99
2023-04-10T05:35:30.512Z,99.99
2023-04-10T05:36:09.446Z,99.99
2023-04-10T05:37:09.367Z,99.99
2023-04-10T05:38:09.276Z,99.99
2023-04-10T05:39:09.176Z,99.99
2023-04-10T05:40:09.097Z,99.99
2023-04-10T05:41:30.035Z,99.99
2023-04-10T05:42:08.926Z,99.99
2023-04-10T05:43:08.832Z,99.99
2023-04-10T05:44:08.756Z,99.99
2023-04-10T05:45:08.668Z,99.99
2023-04-10T05:46:08.641Z,99.99
2023-04-10T05:47:29.531Z,99.99
2023-04-10T05:48:08.403Z,99.99
2023-04-10T05:49:08.320Z,99.99
2023-04-10T05:50:08.260Z,99.99
2023-04-10T05:51:08.139Z,99.99
2023-04-10T05:52:08.070Z,99.99
2023-04-10T05:53:28.967Z,99.99
2023-04-10T05:54:07.908Z,99.99
2023-04-10T05:55:07.805Z,99.99
2023-04-10T05:56:07.725Z,99.99
2023-04-10T05:57:07.631Z,99.99
2023-04-10T05:58:07.550Z,99.99
2023-04-10T05:59:28.454Z,99.99
2023-04-10T06:00:07.427Z,99.99
2023-04-10T06:01:07.304Z,99.99
2023-04-10T06:02:07.439Z,99.99
2023-04-10T06:03:07.273Z,99.99
2023-04-10T06:05:33.042Z,99.99
2023-04-10T06:06:08.292Z,99.99
2023-04-10T06:07:06.757Z,99.99
2023-04-10T06:08:06.706Z,99.99
2023-04-10T06:09:06.607Z,99.99
2023-04-10T06:10:06.539Z,99.99
2023-04-10T06:11:27.402Z,99.99
2023-04-10T06:12:06.338Z,99.99
2023-04-10T06:13:06.490Z,99.99
2023-04-10T06:14:06.167Z,99.99
2023-04-10T06:15:06.116Z,99.99
2023-04-10T06:16:06.056Z,99.99
2023-04-10T06:17:26.885Z,99.99
2023-04-10T06:18:05.837Z,99.99
2023-04-10T06:19:05.741Z,99.99
2023-04-10T06:20:05.657Z,99.99
2023-04-10T06:21:05.569Z,99.99
2023-04-10T06:22:05.480Z,99.99
2023-04-10T06:23:26.394Z,99.99
2023-04-10T06:24:05.310Z,99.99
2023-04-10T06:25:05.227Z,99.99
2023-04-10T06:26:05.142Z,99.99
2023-04-10T06:27:05.045Z,99.99
2023-04-10T06:28:04.959Z,99.99
2023-04-10T06:29:25.874Z,99.99
2023-04-10T06:30:04.817Z,99.99
2023-04-10T06:31:04.731Z,99.99
2023-04-10T06:32:04.635Z,99.99
2023-04-10T06:33:04.586Z,99.99
2023-04-10T06:34:04.461Z,99.99
2023-04-10T06:35:25.347Z,99.99
2023-04-10T06:36:04.379Z,99.99
2023-04-10T06:37:04.198Z,99.99
2023-04-10T06:38:04.122Z,99.99
2023-04-10T06:39:04.032Z,99.99
2023-04-10T06:40:03.970Z,99.99
2023-04-10T06:41:24.837Z,99.99
2023-04-10T06:42:03.791Z,99.99
2023-04-10T06:43:03.685Z,99.99
2023-04-10T06:44:03.811Z,99.99
2023-04-10T06:45:03.515Z,99.99
2023-04-10T06:46:03.438Z,99.99
2023-04-10T06:47:24.361Z,99.99
2023-04-10T06:48:03.367Z,99.99
2023-04-10T06:49:03.166Z,99.99
2023-04-10T06:50:03.096Z,99.99
2023-04-10T06:51:03.022Z,99.99
2023-04-10T06:52:02.926Z,99.99
2023-04-10T06:53:23.807Z,99.99
2023-04-10T06:54:02.754Z,99.99
2023-04-10T06:55:02.703Z,99.99
2023-04-10T06:56:03.377Z,99.99
2023-04-10T06:57:02.497Z,99.99
2023-04-10T06:58:02.416Z,99.99
2023-04-10T06:59:23.307Z,99.99
2023-04-10T07:00:02.240Z,99.99
2023-04-10T07:01:02.236Z,99.99
2023-04-10T07:02:02.114Z,99.99
2023-04-10T07:03:01.995Z,99.99
2023-04-10T07:04:01.930Z,99.99
2023-04-10T07:05:22.806Z,99.99
2023-04-10T07:06:01.742Z,99.99
2023-04-10T07:07:01.653Z,99.99
2023-04-10T07:08:01.565Z,99.99
2023-04-10T07:09:01.518Z,99.99
2023-04-10T07:10:01.479Z,99.99
2023-04-10T07:11:22.302Z,99.99
2023-04-10T07:12:01.229Z,99.99
2023-04-10T07:13:01.144Z,99.99
2023-04-10T07:14:01.063Z,99.99
2023-04-10T07:15:00.967Z,99.99
2023-04-10T07:16:00.934Z,99.99
2023-04-10T07:17:21.820Z,99.99
2023-04-10T07:18:00.773Z,99.99
2023-04-10T07:19:00.640Z,99.99
2023-04-10T07:20:00.546Z,99.99
2023-04-10T07:21:00.477Z,99.99
2023-04-10T07:22:00.384Z,99.99
2023-04-10T07:23:21.273Z,99.99
2023-04-10T07:24:00.207Z,99.99
2023-04-10T07:25:00.159Z,99.99
2023-04-10T07:26:00.053Z,98.59
2023-04-10T07:26:59.971Z,97.31
2023-04-10T07:27:59.886Z,98.36
2023-04-10T07:29:20.778Z,99.30
2023-04-10T07:29:59.715Z,99.30
2023-04-10T07:30:59.638Z,98.36
2023-04-10T07:31:59.715Z,98.45
2023-04-10T07:32:59.597Z,96.93
2023-04-10T07:33:59.401Z,97.78
2023-04-10T07:35:20.297Z,97.50
2023-04-10T07:35:59.281Z,97.27
2023-04-10T07:36:59.150Z,95.94
2023-04-10T07:37:59.044Z,94.60
2023-04-10T07:38:59.004Z,94.98
2023-04-10T07:39:58.903Z,94.32
2023-04-10T07:41:19.803Z,94.46
2023-04-10T07:41:58.711Z,92.65
2023-04-10T07:42:58.638Z,92.65
2023-04-10T07:43:58.546Z,92.65
2023-04-10T07:44:58.518Z,91.89
2023-04-10T07:45:58.471Z,90.75
2023-04-10T07:47:19.339Z,90.03
2023-04-10T07:47:58.224Z,89.27
2023-04-10T07:48:58.186Z,88.51
2023-04-10T07:49:58.092Z,90.03
2023-04-10T07:50:57.990Z,88.79
2023-04-10T07:51:57.880Z,89.37
2023-04-10T07:53:18.801Z,90.51
2023-04-10T07:53:57.735Z,89.47
2023-04-10T07:54:57.638Z,89.56
2023-04-10T07:55:57.576Z,88.04
2023-04-10T07:56:57.475Z,88.42
2023-04-10T07:57:57.397Z,89.61
2023-04-10T07:59:18.286Z,89.41
2023-04-10T07:59:57.218Z,86.94
2023-04-10T08:00:57.151Z,86.08
2023-04-10T08:01:57.098Z,87.32
2023-04-10T08:02:57.244Z,86.84
2023-04-10T08:03:57.110Z,87.60
2023-04-10T08:05:17.839Z,89.36
2023-04-10T08:05:56.725Z,85.64
2023-04-10T08:06:56.651Z,84.31
2023-04-10T08:07:56.570Z,84.60
2023-04-10T08:08:56.751Z,84.12
2023-04-10T08:09:56.437Z,83.74
2023-04-10T08:11:17.304Z,83.07
2023-04-10T08:11:56.235Z,82.83
2023-04-10T08:12:56.176Z,83.78
2023-04-10T08:13:56.091Z,83.12
2023-04-10T08:14:56.001Z,82.92
2023-04-10T08:15:55.915Z,82.54
2023-04-10T08:17:16.834Z,81.97
2023-04-10T08:17:55.778Z,81.97
2023-04-10T08:18:55.917Z,81.30
2023-04-10T08:19:55.595Z,82.54
2023-04-10T08:20:55.511Z,84.07
2023-04-10T08:21:55.430Z,83.06
2023-04-10T08:23:20.302Z,81.35
2023-04-10T08:23:55.275Z,80.20
2023-04-10T08:24:55.185Z,80.39
2023-04-10T08:25:55.102Z,80.30
2023-04-10T08:26:55.068Z,80.96
2023-04-10T08:27:54.945Z,81.44
2023-04-10T08:29:15.845Z,79.63
2023-04-10T08:29:54.788Z,79.06
2023-04-10T08:30:54.732Z,80.15
2023-04-10T08:31:54.618Z,79.25
2023-04-10T08:32:54.549Z,77.82
2023-04-10T08:33:54.659Z,78.23
2023-04-10T08:35:15.371Z,77.62
2023-04-10T08:35:54.298Z,79.06
2023-04-10T08:36:54.220Z,78.39
2023-04-10T08:38:11.845Z,76.77
2023-04-10T08:38:54.067Z,76.86
2023-04-10T08:39:53.991Z,78.01
2023-04-10T08:41:14.897Z,78.67
2023-04-10T08:41:53.888Z,77.86
2023-04-10T08:42:53.978Z,77.28
2023-04-10T08:43:53.855Z,75.91
2023-04-10T08:44:53.580Z,75.28
2023-04-10T08:45:53.600Z,75.47
2023-04-10T08:47:14.403Z,75.09
2023-04-10T08:47:53.365Z,76.04
2023-04-10T08:48:53.298Z,75.47
2023-04-10T08:49:53.478Z,75.76
2023-04-10T08:50:53.087Z,75.28
2023-04-10T08:51:53.075Z,75.57
2023-04-10T08:53:13.913Z,75.47
2023-04-10T08:53:53.173Z,75.51
2023-04-10T08:54:52.776Z,74.93
2023-04-10T08:55:52.699Z,73.79
2023-04-10T08:56:52.670Z,73.98
2023-04-10T08:58:00.708Z,75.09
2023-04-10T08:59:13.575Z,74.99
2023-04-10T08:59:52.394Z,74.32
2023-04-10T09:00:52.308Z,75.13
2023-04-10T09:01:52.271Z,75.13
2023-04-10T09:02:52.245Z,73.60
2023-04-10T09:03:52.123Z,73.12
2023-04-10T09:05:12.960Z,75.98
2023-04-10T09:05:51.902Z,73.69
2023-04-10T09:06:51.814Z,71.98
2023-04-10T09:07:51.736Z,72.07
2023-04-10T09:08:51.670Z,71.78
2023-04-10T09:09:51.579Z,73.18
2023-04-10T09:11:12.541Z,73.56
2023-04-10T09:11:51.426Z,73.75
2023-04-10T09:12:51.351Z,73.18
2023-04-10T09:13:51.249Z,74.46
2023-04-10T09:14:51.180Z,73.94
2023-04-10T09:15:51.120Z,71.69
2023-04-10T09:17:12.007Z,72.26
2023-04-10T09:17:50.960Z,73.98
2023-04-10T09:18:50.872Z,71.69
2023-04-10T09:19:50.800Z,69.78
2023-04-10T09:20:50.707Z,69.02
2023-04-10T09:21:50.633Z,69.21
2023-04-10T09:23:11.521Z,70.07
2023-04-10T09:23:50.464Z,70.16
2023-04-10T09:24:50.386Z,70.77
2023-04-10T09:25:51.298Z,69.91
2023-04-10T09:26:50.225Z,69.62
2023-04-10T09:27:50.140Z,70.10
2023-04-10T09:29:11.062Z,70.87
2023-04-10T09:29:49.984Z,69.53
2023-04-10T09:30:49.910Z,71.67
2023-04-10T09:31:49.922Z,72.72
2023-04-10T09:32:49.839Z,72.05
2023-04-10T09:33:49.668Z,70.23
2023-04-10T09:35:10.581Z,69.09
2023-04-10T09:35:49.502Z,67.27
2023-04-10T09:36:49.439Z,67.46
2023-04-10T09:37:49.360Z,67.75
2023-04-10T09:38:49.277Z,69.34
2023-04-10T09:39:49.201Z,69.05
2023-04-10T09:41:10.111Z,69.43
2023-04-10T09:41:49.063Z,67.91
2023-04-10T09:42:48.986Z,66.66
2023-04-10T09:43:48.878Z,68.32
2023-04-10T09:44:48.817Z,68.23
2023-04-10T09:45:48.741Z,66.79
2023-04-10T09:47:09.623Z,67.94
2023-04-10T09:47:48.589Z,68.04
2023-04-10T09:48:48.497Z,67.46
2023-04-10T09:49:48.470Z,66.41
2023-04-10T09:50:48.336Z,67.36
2023-04-10T09:51:48.253Z,66.22
2023-04-10T09:53:09.175Z,66.22
2023-04-10T09:53:48.147Z,66.03
2023-04-10T09:54:48.034Z,68.70
2023-04-10T09:55:47.945Z,68.04
2023-04-10T09:56:47.874Z,68.99
2023-04-10T09:57:47.778Z,67.55
2023-04-10T09:59:08.687Z,67.08
2023-04-10T09:59:47.640Z,67.84
2023-04-10T10:00:47.583Z,68.51
2023-04-10T10:01:47.529Z,68.90
2023-04-10T10:02:47.608Z,69.76
2023-04-10T10:03:47.351Z,67.94
2023-04-10T10:05:08.299Z,67.65
2023-04-10T10:05:47.155Z,69.85
2023-04-10T10:06:47.115Z,68.99
2023-04-10T10:07:46.989Z,69.85
2023-04-10T10:08:46.965Z,67.65
2023-04-10T10:09:46.835Z,67.46
2023-04-10T10:11:07.759Z,67.36
2023-04-10T10:11:46.686Z,69.41
2023-04-10T10:12:46.599Z,66.92
2023-04-10T10:13:46.513Z,66.73
2023-04-10T10:14:46.477Z,67.59
2023-04-10T10:15:46.363Z,65.39
2023-04-10T10:17:07.273Z,66.16
2023-04-10T10:17:46.240Z,65.48
2023-04-10T10:18:46.121Z,66.70
2023-04-10T10:19:46.047Z,67.59
2023-04-10T10:20:45.986Z,66.25
2023-04-10T10:21:45.952Z,66.54
2023-04-10T10:23:06.801Z,68.35
2023-04-10T10:23:45.751Z,66.25
2023-04-10T10:24:45.733Z,65.97
2023-04-10T10:25:45.574Z,66.06
2023-04-10T10:26:45.519Z,66.44
2023-04-10T10:27:45.455Z,64.62
2023-04-10T10:29:06.352Z,63.96
2023-04-10T10:29:45.263Z,64.34
2023-04-10T10:30:45.197Z,64.43
2023-04-10T10:31:45.166Z,66.06
2023-04-10T10:32:45.070Z,68.74
2023-04-10T10:33:44.953Z,66.25
2023-04-10T10:35:05.864Z,66.06
2023-04-10T10:35:44.804Z,65.68
2023-04-10T10:36:44.747Z,66.09
2023-04-10T10:37:44.649Z,68.10
2023-04-10T10:38:44.575Z,68.01
2023-04-10T10:39:44.497Z,66.96
2023-04-10T10:41:05.389Z,65.81
2023-04-10T10:41:44.337Z,64.66
2023-04-10T10:42:44.271Z,64.85
2023-04-10T10:43:44.183Z,67.24
2023-04-10T10:44:44.109Z,64.47
2023-04-10T10:45:44.035Z,63.89
2023-04-10T10:47:04.943Z,65.23
2023-04-10T10:47:43.907Z,67.08
2023-04-10T10:48:43.792Z,66.32
2023-04-10T10:49:43.705Z,66.32
2023-04-10T10:50:43.633Z,63.45
2023-04-10T10:51:43.564Z,64.50
2023-04-10T10:53:04.520Z,62.97
2023-04-10T10:53:43.405Z,63.16
2023-04-10T10:54:57.022Z,63.06
2023-04-10T10:55:43.234Z,62.11
2023-04-10T10:56:43.174Z,61.98
2023-04-10T10:57:43.084Z,62.30
2023-04-10T10:59:04.004Z,64.02
2023-04-10T10:59:42.931Z,63.93
2023-04-10T11:00:42.883Z,63.54
2023-04-10T11:01:42.867Z,64.69
2023-04-10T11:02:42.818Z,65.26
2023-04-10T11:03:42.687Z,62.49
2023-04-10T11:05:03.536Z,62.59
2023-04-10T11:05:42.462Z,62.30
2023-04-10T11:06:43.540Z,62.97
2023-04-10T11:07:42.325Z,62.90
2023-04-10T11:08:42.233Z,62.33
2023-04-10T11:09:42.156Z,60.32
2023-04-10T11:11:03.081Z,60.70
2023-04-10T11:11:42.005Z,60.13
2023-04-10T11:12:41.925Z,60.22
2023-04-10T11:13:41.861Z,60.41
2023-04-10T11:14:41.775Z,62.33
2023-04-10T11:15:41.687Z,61.47
2023-04-10T11:17:02.651Z,62.52
2023-04-10T11:17:41.587Z,63.86
2023-04-10T11:18:41.470Z,61.76
2023-04-10T11:19:41.414Z,60.96
2023-04-10T11:20:41.314Z,62.23
2023-04-10T11:21:41.231Z,60.00
2023-04-10T11:23:02.136Z,60.58
2023-04-10T11:23:41.081Z,59.72
2023-04-10T11:24:41.038Z,60.86
2023-04-10T11:25:40.930Z,62.01
2023-04-10T11:26:40.847Z,62.59
2023-04-10T11:27:40.770Z,61.15
2023-04-10T11:29:01.694Z,62.27
2023-04-10T11:29:40.614Z,62.17
2023-04-10T11:30:40.526Z,60.83
2023-04-10T11:31:40.579Z,60.77
2023-04-10T11:32:40.383Z,60.77
2023-04-10T11:33:40.402Z,60.86
2023-04-10T11:35:03.093Z,60.89
2023-04-10T11:35:40.202Z,61.57
2023-04-10T11:36:40.066Z,61.66
2023-04-10T11:37:39.996Z,60.41
2023-04-10T11:38:39.923Z,60.13
2023-04-10T11:39:39.832Z,60.13
2023-04-10T11:41:00.768Z,60.96
2023-04-10T11:41:39.689Z,59.91
2023-04-10T11:42:39.591Z,61.34
2023-04-10T11:43:39.522Z,59.91
2023-04-10T11:44:39.643Z,62.01
2023-04-10T11:45:39.405Z,60.67
2023-04-10T11:47:00.279Z,59.33
2023-04-10T11:47:39.270Z,58.25
2023-04-10T11:48:39.137Z,58.92
2023-04-10T11:49:39.073Z,59.30
2023-04-10T11:50:38.982Z,60.38
2023-04-10T11:51:38.917Z,60.19
2023-04-10T11:52:59.807Z,60.00
2023-04-10T11:53:38.745Z,58.37
2023-04-10T11:54:38.673Z,59.62
2023-04-10T11:55:38.603Z,59.72
2023-04-10T11:56:38.550Z,59.05
2023-04-10T11:57:38.449Z,58.37
2023-04-10T11:58:59.350Z,58.18
2023-04-10T11:59:38.289Z,58.28
2023-04-10T12:00:38.204Z,59.08
2023-04-10T12:01:39.299Z,60.89
2023-04-10T12:02:38.117Z,59.65
2023-04-10T12:03:38.061Z,59.27
2023-04-10T12:04:58.912Z,60.32
2023-04-10T12:05:37.829Z,60.61
2023-04-10T12:06:37.738Z,63.51
2023-04-10T12:07:37.669Z,64.37
2023-04-10T12:08:37.594Z,63.03
2023-04-10T12:09:37.552Z,59.97
2023-04-10T12:10:58.406Z,59.77
2023-04-10T12:11:37.361Z,60.25
2023-04-10T12:12:37.284Z,59.48
2023-04-10T12:13:37.219Z,57.86
2023-04-10T12:14:37.129Z,59.65
2023-04-10T12:15:37.069Z,59.94
2023-04-10T12:16:57.946Z,62.23
2023-04-10T12:17:36.920Z,62.52
2023-04-10T12:18:36.825Z,62.20
2023-04-10T12:19:36.745Z,61.44
2023-04-10T12:20:36.666Z,62.40
2023-04-10T12:21:36.606Z,61.63
2023-04-10T12:22:57.514Z,61.60
2023-04-10T12:23:36.436Z,62.08
2023-04-10T12:24:36.356Z,61.25
2023-04-10T12:25:36.320Z,60.58
2023-04-10T12:26:36.194Z,62.87
2023-04-10T12:27:36.128Z,63.35
2023-04-10T12:28:57.430Z,62.97
2023-04-10T12:29:35.982Z,63.19
2023-04-10T12:30:35.897Z,61.76
2023-04-10T12:31:35.914Z,60.51
2023-04-10T12:32:35.751Z,60.51
2023-04-10T12:33:35.669Z,60.32
2023-04-10T12:34:56.560Z,60.70
2023-04-10T12:35:35.535Z,59.94
2023-04-10T12:36:35.568Z,59.55
2023-04-10T12:37:35.354Z,59.84
2023-04-10T12:38:35.294Z,61.18
2023-04-10T12:39:35.206Z,62.84
2023-04-10T12:40:56.116Z,61.85
2023-04-10T12:41:35.068Z,60.99
2023-04-10T12:42:34.970Z,60.99
2023-04-10T12:43:34.922Z,60.03
2023-04-10T12:44:34.822Z,60.99
2023-04-10T12:45:34.778Z,62.81
2023-04-10T12:46:55.675Z,64.34
2023-04-10T12:47:34.654Z,64.18
2023-04-10T12:48:34.498Z,64.18
2023-04-10T12:49:34.432Z,63.32
2023-04-10T12:50:34.344Z,59.97
2023-04-10T12:51:34.277Z,59.20
2023-04-10T12:52:55.182Z,58.81